sensor_id;sensor_type;location;lat;lon;timestamp;temperature;humidity
20827;DHT22;10574;52.508;13.236;2023-04-01T00:02:11;9.30;99.90
20827;DHT22;10574;52.508;13.236;2023-04-01T00:04:39;9.30;99.90
20827;DHT22;10574;52.508;13.236;2023-04-01T00:07:06;9.30;99.90
20827;DHT22;10574;52.508;13.236;2023-04-01T00:09:34;9.20;99.90
20827;DHT22;10574;52.508;13.236;2023-04-01T00:12:02;9.30;99.90
20827;DHT22;10574;52.508;13.236;2023-04-01T00:14:30;9.30;99.90
20827;DHT22;10574;52.508;13.236;2023-04-01T00:16:57;9.30;99.90
20827;DHT22;10574;52.508;13.236;2023-04-01T00:21:51;9.30;99.90
20827;DHT22;10574;52.508;13.236;2023-04-01T00:24:19;9.30;99.90
20827;DHT22;10574;52.508;13.236;2023-04-01T00:26:46;9.30;99.90
20827;DHT22;10574;52.508;13.236;2023-04-01T00:29:15;9.30;99.90
20827;DHT22;10574;52.508;13.236;2023-04-01T00:31:43;9.30;99.90
20827;DHT22;10574;52.508;13.236;2023-04-01T00:34:11;9.30;99.90
20827;DHT22;10574;52.508;13.236;2023-04-01T00:36:39;9.40;99.90
20827;DHT22;10574;52.508;13.236;2023-04-01T00:39:07;9.30;99.90
20827;DHT22;10574;52.508;13.236;2023-04-01T00:41:35;9.30;99.90
20827;DHT22;10574;52.508;13.236;2023-04-01T00:44:20;9.30;99.90
20827;DHT22;10574;52.508;13.236;2023-04-01T00:46:48;9.30;99.90
20827;DHT22;10574;52.508;13.236;2023-04-01T00:49:18;9.30;99.90
20827;DHT22;10574;52.508;13.236;2023-04-01T00:51:50;9.30;99.90
20827;DHT22;10574;52.508;13.236;2023-04-01T00:54:19;9.30;99.90
20827;DHT22;10574;52.508;13.236;2023-04-01T00:57:07;9.40;99.90
20827;DHT22;10574;52.508;13.236;2023-04-01T00:59:33;9.40;99.90
20827;DHT22;10574;52.508;13.236;2023-04-01T01:02:07;9.40;99.90
20827;DHT22;10574;52.508;13.236;2023-04-01T01:04:35;9.40;99.90
20827;DHT22;10574;52.508;13.236;2023-04-01T01:07:38;9.40;99.90
20827;DHT22;10574;52.508;13.236;2023-04-01T01:10:12;9.40;99.90
20827;DHT22;10574;52.508;13.236;2023-04-01T01:15:16;9.40;99.90
20827;DHT22;10574;52.508;13.236;2023-04-01T01:17:52;9.40;99.90
20827;DHT22;10574;52.508;13.236;2023-04-01T01:37:03;9.40;99.90
20827;DHT22;10574;52.508;13.236;2023-04-01T01:39:33;9.40;99.90
20827;DHT22;10574;52.508;13.236;2023-04-01T01:42:04;9.40;99.90
20827;DHT22;10574;52.508;13.236;2023-04-01T01:44:33;9.40;99.90
20827;DHT22;10574;52.508;13.236;2023-04-01T01:47:03;9.40;99.90
20827;DHT22;10574;52.508;13.236;2023-04-01T01:49:32;9.50;99.90
20827;DHT22;10574;52.508;13.236;2023-04-01T01:52:01;9.50;99.90
20827;DHT22;10574;52.508;13.236;2023-04-01T01:54:28;9.50;99.90
20827;DHT22;10574;52.508;13.236;2023-04-01T01:57:06;9.40;99.90
20827;DHT22;10574;52.508;13.236;2023-04-01T01:59:30;9.40;99.90
20827;DHT22;10574;52.508;13.236;2023-04-01T02:02:00;9.50;99.90
20827;DHT22;10574;52.508;13.236;2023-04-01T02:04:31;9.50;99.90
20827;DHT22;10574;52.508;13.236;2023-04-01T02:07:02;9.40;99.90
20827;DHT22;10574;52.508;13.236;2023-04-01T02:09:30;9.40;99.90
20827;DHT22;10574;52.508;13.236;2023-04-01T02:11:59;9.40;99.90
20827;DHT22;10574;52.508;13.236;2023-04-01T02:14:34;9.40;99.90
20827;DHT22;10574;52.508;13.236;2023-04-01T02:17:15;9.30;99.90
20827;DHT22;10574;52.508;13.236;2023-04-01T02:19:46;9.30;99.90
20827;DHT22;10574;52.508;13.236;2023-04-01T02:22:15;9.30;99.90
20827;DHT22;10574;52.508;13.236;2023-04-01T02:24:44;9.30;99.90
20827;DHT22;10574;52.508;13.236;2023-04-01T02:27:13;9.30;99.90
20827;DHT22;10574;52.508;13.236;2023-04-01T02:29:40;9.30;99.90
20827;DHT22;10574;52.508;13.236;2023-04-01T02:32:09;9.30;99.90
20827;DHT22;10574;52.508;13.236;2023-04-01T02:34:37;9.30;99.90
20827;DHT22;10574;52.508;13.236;2023-04-01T02:37:05;9.30;99.90
20827;DHT22;10574;52.508;13.236;2023-04-01T02:39:32;9.20;99.90
20827;DHT22;10574;52.508;13.236;2023-04-01T02:42:00;9.20;99.90
20827;DHT22;10574;52.508;13.236;2023-04-01T02:44:28;9.20;99.90
20827;DHT22;10574;52.508;13.236;2023-04-01T02:46:55;9.20;99.90
20827;DHT22;10574;52.508;13.236;2023-04-01T02:49:23;9.10;99.90
20827;DHT22;10574;52.508;13.236;2023-04-01T02:51:51;9.10;99.90
20827;DHT22;10574;52.508;13.236;2023-04-01T02:54:19;9.20;99.90
20827;DHT22;10574;52.508;13.236;2023-04-01T02:59:12;9.10;99.90
20827;DHT22;10574;52.508;13.236;2023-04-01T03:01:40;9.10;99.90
20827;DHT22;10574;52.508;13.236;2023-04-01T03:04:07;9.10;99.90
20827;DHT22;10574;52.508;13.236;2023-04-01T03:06:35;9.00;99.90
20827;DHT22;10574;52.508;13.236;2023-04-01T03:09:03;9.00;99.90
20827;DHT22;10574;52.508;13.236;2023-04-01T03:11:30;9.10;99.90
20827;DHT22;10574;52.508;13.236;2023-04-01T03:13:58;9.10;99.90
20827;DHT22;10574;52.508;13.236;2023-04-01T03:16:26;9.10;99.90
20827;DHT22;10574;52.508;13.236;2023-04-01T03:18:53;9.10;99.90
20827;DHT22;10574;52.508;13.236;2023-04-01T03:21:24;9.10;99.90
20827;DHT22;10574;52.508;13.236;2023-04-01T03:23:52;9.10;99.90
20827;DHT22;10574;52.508;13.236;2023-04-01T03:26:20;9.10;99.90
20827;DHT22;10574;52.508;13.236;2023-04-01T03:28:48;9.10;99.90
20827;DHT22;10574;52.508;13.236;2023-04-01T03:31:15;9.10;99.90
20827;DHT22;10574;52.508;13.236;2023-04-01T03:33:43;9.10;99.90
20827;DHT22;10574;52.508;13.236;2023-04-01T03:36:11;9.10;99.90
20827;DHT22;10574;52.508;13.236;2023-04-01T03:38:41;9.10;99.90
20827;DHT22;10574;52.508;13.236;2023-04-01T03:41:14;9.10;99.90
20827;DHT22;10574;52.508;13.236;2023-04-01T03:43:42;9.10;99.90
20827;DHT22;10574;52.508;13.236;2023-04-01T03:46:09;9.10;99.90
20827;DHT22;10574;52.508;13.236;2023-04-01T03:48:37;9.10;99.90
20827;DHT22;10574;52.508;13.236;2023-04-01T03:51:08;9.10;99.90
20827;DHT22;10574;52.508;13.236;2023-04-01T03:53:36;9.20;99.90
20827;DHT22;10574;52.508;13.236;2023-04-01T03:56:05;9.20;99.90
20827;DHT22;10574;52.508;13.236;2023-04-01T03:58:33;9.20;99.90
20827;DHT22;10574;52.508;13.236;2023-04-01T04:01:01;9.20;99.90
20827;DHT22;10574;52.508;13.236;2023-04-01T04:03:28;9.20;99.90
20827;DHT22;10574;52.508;13.236;2023-04-01T04:05:56;9.20;99.90
20827;DHT22;10574;52.508;13.236;2023-04-01T04:08:24;9.20;99.90
20827;DHT22;10574;52.508;13.236;2023-04-01T04:10:55;9.20;99.90
20827;DHT22;10574;52.508;13.236;2023-04-01T04:13:23;9.20;99.90
20827;DHT22;10574;52.508;13.236;2023-04-01T04:15:51;9.20;99.90
20827;DHT22;10574;52.508;13.236;2023-04-01T04:18:18;9.20;99.90
20827;DHT22;10574;52.508;13.236;2023-04-01T04:20:46;9.20;99.90
20827;DHT22;10574;52.508;13.236;2023-04-01T04:23:16;9.20;99.90
20827;DHT22;10574;52.508;13.236;2023-04-01T04:25:59;9.20;99.90
20827;DHT22;10574;52.508;13.236;2023-04-01T04:28:27;9.20;99.90
20827;DHT22;10574;52.508;13.236;2023-04-01T04:30:55;9.20;99.90
20827;DHT22;10574;52.508;13.236;2023-04-01T04:33:24;9.20;99.90
20827;DHT22;10574;52.508;13.236;2023-04-01T04:35:54;9.20;99.90
20827;DHT22;10574;52.508;13.236;2023-04-01T04:38:21;9.20;99.90
20827;DHT22;10574;52.508;13.236;2023-04-01T04:40:49;9.20;99.90
20827;DHT22;10574;52.508;13.236;2023-04-01T04:43:18;9.20;99.90
20827;DHT22;10574;52.508;13.236;2023-04-01T04:45:46;9.30;99.90
20827;DHT22;10574;52.508;13.236;2023-04-01T04:48:15;9.20;99.90
20827;DHT22;10574;52.508;13.236;2023-04-01T04:50:48;9.20;99.90
20827;DHT22;10574;52.508;13.236;2023-04-01T04:53:18;9.20;99.90
20827;DHT22;10574;52.508;13.236;2023-04-01T04:55:47;9.20;99.90
20827;DHT22;10574;52.508;13.236;2023-04-01T04:58:16;9.20;99.90
20827;DHT22;10574;52.508;13.236;2023-04-01T05:00:44;9.20;99.90
20827;DHT22;10574;52.508;13.236;2023-04-01T05:03:12;9.20;99.90
20827;DHT22;10574;52.508;13.236;2023-04-01T05:05:47;9.20;99.90
20827;DHT22;10574;52.508;13.236;2023-04-01T05:08:09;9.20;99.90
20827;DHT22;10574;52.508;13.236;2023-04-01T05:10:37;9.20;99.90
20827;DHT22;10574;52.508;13.236;2023-04-01T05:13:05;9.20;99.90
20827;DHT22;10574;52.508;13.236;2023-04-01T05:15:32;9.20;99.90
20827;DHT22;10574;52.508;13.236;2023-04-01T05:18:00;9.30;99.90
20827;DHT22;10574;52.508;13.236;2023-04-01T05:20:28;9.20;99.90
20827;DHT22;10574;52.508;13.236;2023-04-01T05:22:57;9.20;99.90
20827;DHT22;10574;52.508;13.236;2023-04-01T05:25:26;9.20;99.90
20827;DHT22;10574;52.508;13.236;2023-04-01T05:27:54;9.20;99.90
20827;DHT22;10574;52.508;13.236;2023-04-01T05:30:22;9.20;99.90
20827;DHT22;10574;52.508;13.236;2023-04-01T05:32:49;9.20;99.90
20827;DHT22;10574;52.508;13.236;2023-04-01T05:35:17;9.20;99.90
20827;DHT22;10574;52.508;13.236;2023-04-01T05:37:45;9.30;99.90
20827;DHT22;10574;52.508;13.236;2023-04-01T05:40:12;9.30;99.90
20827;DHT22;10574;52.508;13.236;2023-04-01T05:42:40;9.30;99.90
20827;DHT22;10574;52.508;13.236;2023-04-01T05:45:08;9.40;99.90
20827;DHT22;10574;52.508;13.236;2023-04-01T05:47:36;9.40;99.90
20827;DHT22;10574;52.508;13.236;2023-04-01T05:50:04;9.50;99.90
20827;DHT22;10574;52.508;13.236;2023-04-01T05:52:32;9.50;99.90
20827;DHT22;10574;52.508;13.236;2023-04-01T05:54:59;9.50;99.90
20827;DHT22;10574;52.508;13.236;2023-04-01T05:57:27;9.50;99.90
20827;DHT22;10574;52.508;13.236;2023-04-01T05:59:55;9.50;99.90
20827;DHT22;10574;52.508;13.236;2023-04-01T06:02:23;9.60;99.90
20827;DHT22;10574;52.508;13.236;2023-04-01T06:05:02;9.60;99.90
20827;DHT22;10574;52.508;13.236;2023-04-01T06:07:24;9.70;99.90
20827;DHT22;10574;52.508;13.236;2023-04-01T06:09:52;9.70;99.90
20827;DHT22;10574;52.508;13.236;2023-04-01T06:12:36;9.70;99.90
20827;DHT22;10574;52.508;13.236;2023-04-01T06:15:44;9.60;99.90
20827;DHT22;10574;52.508;13.236;2023-04-01T06:34:51;9.70;99.90
20827;DHT22;10574;52.508;13.236;2023-04-01T06:37:42;9.80;99.90
20827;DHT22;10574;52.508;13.236;2023-04-01T06:40:31;9.90;99.90
20827;DHT22;10574;52.508;13.236;2023-04-01T06:51:59;10.10;99.90
20827;DHT22;10574;52.508;13.236;2023-04-01T06:54:40;10.10;99.90
20827;DHT22;10574;52.508;13.236;2023-04-01T06:59:51;10.20;99.90
20827;DHT22;10574;52.508;13.236;2023-04-01T07:02:41;10.30;99.90
20827;DHT22;10574;52.508;13.236;2023-04-01T07:05:05;10.30;99.90
20827;DHT22;10574;52.508;13.236;2023-04-01T07:07:37;10.40;99.90
20827;DHT22;10574;52.508;13.236;2023-04-01T07:10:10;10.40;99.90
20827;DHT22;10574;52.508;13.236;2023-04-01T07:12:44;10.40;99.90
20827;DHT22;10574;52.508;13.236;2023-04-01T07:15:20;10.40;99.90
20827;DHT22;10574;52.508;13.236;2023-04-01T07:17:56;10.40;99.90
20827;DHT22;10574;52.508;13.236;2023-04-01T07:20:33;10.50;99.90
20827;DHT22;10574;52.508;13.236;2023-04-01T07:23:10;10.50;99.90
20827;DHT22;10574;52.508;13.236;2023-04-01T07:25:41;10.70;99.90
20827;DHT22;10574;52.508;13.236;2023-04-01T07:28:15;10.90;99.90
20827;DHT22;10574;52.508;13.236;2023-04-01T07:33:45;11.10;99.90
20827;DHT22;10574;52.508;13.236;2023-04-01T07:41:42;11.30;99.90
20827;DHT22;10574;52.508;13.236;2023-04-01T07:44:24;11.30;99.90
20827;DHT22;10574;52.508;13.236;2023-04-01T07:47:16;11.30;99.90
20827;DHT22;10574;52.508;13.236;2023-04-01T07:52:37;11.50;99.90
20827;DHT22;10574;52.508;13.236;2023-04-01T07:55:16;11.40;99.90
20827;DHT22;10574;52.508;13.236;2023-04-01T07:59:06;11.50;99.90
20827;DHT22;10574;52.508;13.236;2023-04-01T08:00:53;11.50;99.90
20827;DHT22;10574;52.508;13.236;2023-04-01T08:03:33;11.50;99.90
20827;DHT22;10574;52.508;13.236;2023-04-01T08:06:25;11.50;99.90
20827;DHT22;10574;52.508;13.236;2023-04-01T08:08:59;11.60;99.90
20827;DHT22;10574;52.508;13.236;2023-04-01T08:11:37;11.50;99.90
20827;DHT22;10574;52.508;13.236;2023-04-01T08:17:15;11.40;99.90
20827;DHT22;10574;52.508;13.236;2023-04-01T08:22:50;11.50;99.90
20827;DHT22;10574;52.508;13.236;2023-04-01T08:25:22;11.40;99.90
20827;DHT22;10574;52.508;13.236;2023-04-01T08:27:55;11.50;99.90
20827;DHT22;10574;52.508;13.236;2023-04-01T08:30:35;11.50;99.90
20827;DHT22;10574;52.508;13.236;2023-04-01T08:33:09;11.50;99.90
20827;DHT22;10574;52.508;13.236;2023-04-01T08:35:37;11.20;99.90
20827;DHT22;10574;52.508;13.236;2023-04-01T08:38:12;11.10;99.90
20827;DHT22;10574;52.508;13.236;2023-04-01T08:43:39;11.00;99.90
20827;DHT22;10574;52.508;13.236;2023-04-01T08:46:14;10.80;99.90
20827;DHT22;10574;52.508;13.236;2023-04-01T08:48:48;10.80;99.90
20827;DHT22;10574;52.508;13.236;2023-04-01T09:00:02;10.10;99.90
20827;DHT22;10574;52.508;13.236;2023-04-01T09:02:49;9.90;99.90
20827;DHT22;10574;52.508;13.236;2023-04-01T09:11:24;9.50;99.90
20827;DHT22;10574;52.508;13.236;2023-04-01T09:16:24;9.40;99.90
20827;DHT22;10574;52.508;13.236;2023-04-01T09:19:24;9.30;99.90
20827;DHT22;10574;52.508;13.236;2023-04-01T09:22:21;9.30;99.90
20827;DHT22;10574;52.508;13.236;2023-04-01T09:25:15;9.30;99.90
20827;DHT22;10574;52.508;13.236;2023-04-01T09:27:54;9.30;99.90
20827;DHT22;10574;52.508;13.236;2023-04-01T09:38:57;9.10;99.90
20827;DHT22;10574;52.508;13.236;2023-04-01T09:41:31;9.20;99.90
20827;DHT22;10574;52.508;13.236;2023-04-01T09:44:12;9.20;99.90
20827;DHT22;10574;52.508;13.236;2023-04-01T09:52:21;9.00;99.90
20827;DHT22;10574;52.508;13.236;2023-04-01T09:55:24;8.90;99.90
20827;DHT22;10574;52.508;13.236;2023-04-01T10:12:34;8.90;99.90
20827;DHT22;10574;52.508;13.236;2023-04-01T10:15:28;8.80;99.90
20827;DHT22;10574;52.508;13.236;2023-04-01T10:21:16;8.80;99.90
20827;DHT22;10574;52.508;13.236;2023-04-01T10:24:10;8.80;99.90
20827;DHT22;10574;52.508;13.236;2023-04-01T10:26:57;8.80;99.90
20827;DHT22;10574;52.508;13.236;2023-04-01T11:00:30;8.70;99.90
20827;DHT22;10574;52.508;13.236;2023-04-01T11:03:36;8.60;99.90
20827;DHT22;10574;52.508;13.236;2023-04-01T11:08:29;8.60;99.90
20827;DHT22;10574;52.508;13.236;2023-04-01T11:13:59;8.70;99.90
20827;DHT22;10574;52.508;13.236;2023-04-01T11:25:24;8.60;99.90
20827;DHT22;10574;52.508;13.236;2023-04-01T11:33:55;8.40;99.90
20827;DHT22;10574;52.508;13.236;2023-04-01T11:39:33;8.60;99.90
20827;DHT22;10574;52.508;13.236;2023-04-01T11:42:30;8.60;99.90
20827;DHT22;10574;52.508;13.236;2023-04-01T11:45:21;8.50;99.90
20827;DHT22;10574;52.508;13.236;2023-04-01T11:48:26;8.40;99.90
20827;DHT22;10574;52.508;13.236;2023-04-01T11:51:07;8.30;99.90
20827;DHT22;10574;52.508;13.236;2023-04-01T12:10:01;8.30;99.90
20827;DHT22;10574;52.508;13.236;2023-04-01T12:12:46;8.30;99.90
20827;DHT22;10574;52.508;13.236;2023-04-01T12:15:21;8.30;99.90
20827;DHT22;10574;52.508;13.236;2023-04-01T12:20:57;8.10;99.90
20827;DHT22;10574;52.508;13.236;2023-04-01T12:23:42;8.20;99.90
20827;DHT22;10574;52.508;13.236;2023-04-01T12:26:26;8.10;99.90
20827;DHT22;10574;52.508;13.236;2023-04-01T12:39:47;8.00;99.90
20827;DHT22;10574;52.508;13.236;2023-04-01T12:42:36;8.00;99.90
20827;DHT22;10574;52.508;13.236;2023-04-01T12:47:56;7.90;99.90
20827;DHT22;10574;52.508;13.236;2023-04-01T12:50:49;7.90;99.90
20827;DHT22;10574;52.508;13.236;2023-04-01T12:55:51;7.90;99.90
20827;DHT22;10574;52.508;13.236;2023-04-01T13:04:12;7.90;99.90
20827;DHT22;10574;52.508;13.236;2023-04-01T13:06:50;8.00;99.90
20827;DHT22;10574;52.508;13.236;2023-04-01T13:09:23;8.00;99.90
20827;DHT22;10574;52.508;13.236;2023-04-01T13:11:57;8.00;99.90
20827;DHT22;10574;52.508;13.236;2023-04-01T13:14:54;7.80;99.90
20827;DHT22;10574;52.508;13.236;2023-04-01T13:17:22;7.80;99.90
20827;DHT22;10574;52.508;13.236;2023-04-01T13:19:58;7.70;99.90
20827;DHT22;10574;52.508;13.236;2023-04-01T13:22:33;7.70;99.90
20827;DHT22;10574;52.508;13.236;2023-04-01T13:27:39;7.60;99.90
20827;DHT22;10574;52.508;13.236;2023-04-01T13:30:21;7.60;99.90
20827;DHT22;10574;52.508;13.236;2023-04-01T13:32:59;7.60;99.90
20827;DHT22;10574;52.508;13.236;2023-04-01T13:35:52;7.50;99.90
20827;DHT22;10574;52.508;13.236;2023-04-01T13:38:44;7.60;99.90
20827;DHT22;10574;52.508;13.236;2023-04-01T13:41:39;7.60;99.90
20827;DHT22;10574;52.508;13.236;2023-04-01T13:44:14;7.70;99.90
20827;DHT22;10574;52.508;13.236;2023-04-01T13:52:08;7.60;99.90
20827;DHT22;10574;52.508;13.236;2023-04-01T13:57:37;7.50;99.90
20827;DHT22;10574;52.508;13.236;2023-04-01T14:00:20;7.40;99.90
20827;DHT22;10574;52.508;13.236;2023-04-01T14:03:11;7.50;99.90
20827;DHT22;10574;52.508;13.236;2023-04-01T14:08:48;7.50;99.90
20827;DHT22;10574;52.508;13.236;2023-04-01T14:14:11;7.60;99.90
20827;DHT22;10574;52.508;13.236;2023-04-01T14:16:58;7.40;99.90
20827;DHT22;10574;52.508;13.236;2023-04-01T14:19:50;7.40;99.90
20827;DHT22;10574;52.508;13.236;2023-04-01T14:33:43;7.20;99.90
20827;DHT22;10574;52.508;13.236;2023-04-01T14:48:15;7.20;99.90
20827;DHT22;10574;52.508;13.236;2023-04-01T14:50:53;7.30;99.90
20827;DHT22;10574;52.508;13.236;2023-04-01T14:55:53;7.30;99.90
20827;DHT22;10574;52.508;13.236;2023-04-01T14:58:40;7.10;99.90
20827;DHT22;10574;52.508;13.236;2023-04-01T15:07:00;7.30;99.90
20827;DHT22;10574;52.508;13.236;2023-04-01T15:12:25;7.10;99.90
20827;DHT22;10574;52.508;13.236;2023-04-01T15:20:35;6.90;99.90
20827;DHT22;10574;52.508;13.236;2023-04-01T15:26:13;6.80;99.90
20827;DHT22;10574;52.508;13.236;2023-04-01T15:37:01;6.70;99.90
20827;DHT22;10574;52.508;13.236;2023-04-01T15:45:34;6.80;99.90
20827;DHT22;10574;52.508;13.236;2023-04-01T15:48:02;6.80;99.90
20827;DHT22;10574;52.508;13.236;2023-04-01T15:50:44;6.70;99.90
20827;DHT22;10574;52.508;13.236;2023-04-01T15:53:27;6.80;99.90
20827;DHT22;10574;52.508;13.236;2023-04-01T15:58:52;6.90;99.90
20827;DHT22;10574;52.508;13.236;2023-04-01T16:12:24;6.80;99.90
20827;DHT22;10574;52.508;13.236;2023-04-01T16:14:55;6.80;99.90
20827;DHT22;10574;52.508;13.236;2023-04-01T16:18:16;6.70;99.90
20827;DHT22;10574;52.508;13.236;2023-04-01T16:20:19;6.70;99.90
20827;DHT22;10574;52.508;13.236;2023-04-01T16:23:02;6.60;99.90
20827;DHT22;10574;52.508;13.236;2023-04-01T16:25:39;6.50;99.90
20827;DHT22;10574;52.508;13.236;2023-04-01T16:31:43;6.40;99.90
20827;DHT22;10574;52.508;13.236;2023-04-01T16:34:00;6.40;99.90
20827;DHT22;10574;52.508;13.236;2023-04-01T16:36:29;6.40;99.90
20827;DHT22;10574;52.508;13.236;2023-04-01T16:39:36;6.50;99.90
20827;DHT22;10574;52.508;13.236;2023-04-01T16:50:25;6.10;99.90
20827;DHT22;10574;52.508;13.236;2023-04-01T16:55:52;6.00;99.90
20827;DHT22;10574;52.508;13.236;2023-04-01T16:58:27;6.00;99.90
20827;DHT22;10574;52.508;13.236;2023-04-01T17:01:21;5.90;99.90
20827;DHT22;10574;52.508;13.236;2023-04-01T17:03:49;6.00;99.90
20827;DHT22;10574;52.508;13.236;2023-04-01T17:06:39;5.90;99.90
20827;DHT22;10574;52.508;13.236;2023-04-01T17:15:31;5.70;99.90
20827;DHT22;10574;52.508;13.236;2023-04-01T17:18:07;5.80;99.90
20827;DHT22;10574;52.508;13.236;2023-04-01T17:20:59;5.70;99.90
20827;DHT22;10574;52.508;13.236;2023-04-01T17:23:39;5.70;99.90
20827;DHT22;10574;52.508;13.236;2023-04-01T17:26:13;5.60;99.90
20827;DHT22;10574;52.508;13.236;2023-04-01T17:31:33;5.60;99.90
20827;DHT22;10574;52.508;13.236;2023-04-01T17:34:26;5.50;99.90
20827;DHT22;10574;52.508;13.236;2023-04-01T17:37:03;5.50;99.90
20827;DHT22;10574;52.508;13.236;2023-04-01T17:39:48;5.50;99.90
20827;DHT22;10574;52.508;13.236;2023-04-01T17:43:03;5.50;99.90
20827;DHT22;10574;52.508;13.236;2023-04-01T17:45:28;5.60;99.90
20827;DHT22;10574;52.508;13.236;2023-04-01T17:47:43;5.50;99.90
20827;DHT22;10574;52.508;13.236;2023-04-01T17:50:30;5.50;99.90
20827;DHT22;10574;52.508;13.236;2023-04-01T17:53:18;5.40;99.90
20827;DHT22;10574;52.508;13.236;2023-04-01T17:55:46;5.30;99.90
20827;DHT22;10574;52.508;13.236;2023-04-01T17:58:37;5.30;99.90
20827;DHT22;10574;52.508;13.236;2023-04-01T18:06:45;5.20;99.90
20827;DHT22;10574;52.508;13.236;2023-04-01T18:09:34;5.20;99.90
20827;DHT22;10574;52.508;13.236;2023-04-01T18:12:44;5.20;99.90
20827;DHT22;10574;52.508;13.236;2023-04-01T18:23:02;5.00;99.90
20827;DHT22;10574;52.508;13.236;2023-04-01T18:25:28;5.10;99.90
20827;DHT22;10574;52.508;13.236;2023-04-01T18:30:28;5.00;99.90
20827;DHT22;10574;52.508;13.236;2023-04-01T18:33:03;4.90;99.90
20827;DHT22;10574;52.508;13.236;2023-04-01T18:38:29;5.00;99.90
20827;DHT22;10574;52.508;13.236;2023-04-01T18:41:14;5.00;99.90
20827;DHT22;10574;52.508;13.236;2023-04-01T18:43:59;4.90;99.90
20827;DHT22;10574;52.508;13.236;2023-04-01T18:52:21;4.90;99.90
20827;DHT22;10574;52.508;13.236;2023-04-01T18:57:52;4.90;99.90
20827;DHT22;10574;52.508;13.236;2023-04-01T19:00:23;4.80;99.90
20827;DHT22;10574;52.508;13.236;2023-04-01T19:03:06;4.80;99.90
20827;DHT22;10574;52.508;13.236;2023-04-01T19:05:42;4.90;99.90
20827;DHT22;10574;52.508;13.236;2023-04-01T19:11:17;4.80;99.90
20827;DHT22;10574;52.508;13.236;2023-04-01T19:13:56;4.70;99.90
20827;DHT22;10574;52.508;13.236;2023-04-01T19:16:49;4.70;99.90
20827;DHT22;10574;52.508;13.236;2023-04-01T19:19:38;4.60;99.90
20827;DHT22;10574;52.508;13.236;2023-04-01T19:22:20;4.60;99.90
20827;DHT22;10574;52.508;13.236;2023-04-01T19:27:25;4.70;99.90
20827;DHT22;10574;52.508;13.236;2023-04-01T19:30:04;4.70;99.90
20827;DHT22;10574;52.508;13.236;2023-04-01T19:47:11;4.40;99.90
20827;DHT22;10574;52.508;13.236;2023-04-01T19:52:32;4.40;99.90
20827;DHT22;10574;52.508;13.236;2023-04-01T19:55:20;4.40;99.90
20827;DHT22;10574;52.508;13.236;2023-04-01T19:57:51;4.40;99.90
20827;DHT22;10574;52.508;13.236;2023-04-01T20:00:22;4.40;99.90
20827;DHT22;10574;52.508;13.236;2023-04-01T20:02:58;4.30;99.90
20827;DHT22;10574;52.508;13.236;2023-04-01T20:05:49;4.30;99.90
20827;DHT22;10574;52.508;13.236;2023-04-01T20:08:24;4.30;99.90
20827;DHT22;10574;52.508;13.236;2023-04-01T20:13:38;4.20;99.90
20827;DHT22;10574;52.508;13.236;2023-04-01T20:16:06;4.20;99.90
20827;DHT22;10574;52.508;13.236;2023-04-01T20:18:45;4.20;99.90
20827;DHT22;10574;52.508;13.236;2023-04-01T20:21:27;4.20;99.90
20827;DHT22;10574;52.508;13.236;2023-04-01T20:26:46;4.10;99.90
20827;DHT22;10574;52.508;13.236;2023-04-01T20:29:36;4.10;99.90
20827;DHT22;10574;52.508;13.236;2023-04-01T20:37:41;4.00;99.90
20827;DHT22;10574;52.508;13.236;2023-04-01T20:40:27;4.00;99.90
20827;DHT22;10574;52.508;13.236;2023-04-01T20:51:38;4.00;99.90
20827;DHT22;10574;52.508;13.236;2023-04-01T20:57:02;3.80;99.90
20827;DHT22;10574;52.508;13.236;2023-04-01T21:08:18;3.70;99.90
20827;DHT22;10574;52.508;13.236;2023-04-01T21:16:39;3.70;99.90
20827;DHT22;10574;52.508;13.236;2023-04-01T21:25:03;3.60;99.90
20827;DHT22;10574;52.508;13.236;2023-04-01T21:28:12;3.60;99.90
20827;DHT22;10574;52.508;13.236;2023-04-01T21:33:27;3.60;99.90
20827;DHT22;10574;52.508;13.236;2023-04-01T21:38:38;3.60;99.90
20827;DHT22;10574;52.508;13.236;2023-04-01T21:47:30;3.60;99.90
20827;DHT22;10574;52.508;13.236;2023-04-01T21:55:28;3.60;99.90
20827;DHT22;10574;52.508;13.236;2023-04-01T21:58:13;3.60;99.90
20827;DHT22;10574;52.508;13.236;2023-04-01T22:03:31;3.50;99.90
20827;DHT22;10574;52.508;13.236;2023-04-01T22:08:44;3.50;99.90
20827;DHT22;10574;52.508;13.236;2023-04-01T22:16:58;3.50;99.90
20827;DHT22;10574;52.508;13.236;2023-04-01T22:19:35;3.50;99.90
20827;DHT22;10574;52.508;13.236;2023-04-01T22:22:10;3.50;99.90
20827;DHT22;10574;52.508;13.236;2023-04-01T22:27:49;3.50;99.90
20827;DHT22;10574;52.508;13.236;2023-04-01T22:32:50;3.50;99.90
20827;DHT22;10574;52.508;13.236;2023-04-01T22:35:35;3.40;99.90
20827;DHT22;10574;52.508;13.236;2023-04-01T22:40:58;3.40;99.90
20827;DHT22;10574;52.508;13.236;2023-04-01T22:43:39;3.40;99.90
20827;DHT22;10574;52.508;13.236;2023-04-01T22:49:02;3.40;99.90
20827;DHT22;10574;52.508;13.236;2023-04-01T22:51:43;3.40;99.90
20827;DHT22;10574;52.508;13.236;2023-04-01T22:57:10;3.40;99.90
20827;DHT22;10574;52.508;13.236;2023-04-01T22:59:48;3.50;99.90
20827;DHT22;10574;52.508;13.236;2023-04-01T23:02:16;3.50;99.90
20827;DHT22;10574;52.508;13.236;2023-04-01T23:04:47;3.40;99.90
20827;DHT22;10574;52.508;13.236;2023-04-01T23:10:12;3.40;99.90
20827;DHT22;10574;52.508;13.236;2023-04-01T23:12:38;3.50;99.90
20827;DHT22;10574;52.508;13.236;2023-04-01T23:15:11;3.50;99.90
20827;DHT22;10574;52.508;13.236;2023-04-01T23:17:58;3.40;99.90
20827;DHT22;10574;52.508;13.236;2023-04-01T23:23:20;3.40;99.90
20827;DHT22;10574;52.508;13.236;2023-04-01T23:26:14;3.50;99.90
20827;DHT22;10574;52.508;13.236;2023-04-01T23:28:40;3.50;99.90
20827;DHT22;10574;52.508;13.236;2023-04-01T23:31:25;3.50;99.90
20827;DHT22;10574;52.508;13.236;2023-04-01T23:33:58;3.50;99.90
20827;DHT22;10574;52.508;13.236;2023-04-01T23:36:28;3.50;99.90
20827;DHT22;10574;52.508;13.236;2023-04-01T23:38:57;3.40;99.90
20827;DHT22;10574;52.508;13.236;2023-04-01T23:41:28;3.50;99.90
20827;DHT22;10574;52.508;13.236;2023-04-01T23:44:06;3.40;99.90
20827;DHT22;10574;52.508;13.236;2023-04-01T23:46:34;3.40;99.90
20827;DHT22;10574;52.508;13.236;2023-04-01T23:49:04;3.30;99.90
20827;DHT22;10574;52.508;13.236;2023-04-01T23:51:38;3.30;99.90
20827;DHT22;10574;52.508;13.236;2023-04-01T23:54:39;3.30;99.90
20827;DHT22;10574;52.508;13.236;2023-04-01T23:57:06;3.30;99.90
20827;DHT22;10574;52.508;13.236;2023-04-01T23:59:36;3.30;99.90
